Huvudsida
METAR-TAF:

METAR-TAF

Flygplatser :

Jeddah, Saudiarabien

latitud: 21-42N, longitud: 039-11E, höjd: 15 m

Aktuellt väderrapport

Denna rapport gjordes för 27 minuter sedan, klockan 16:00 UTC
Vind 10 kt från nord/nordväst
Temperatur 26°C
Fuktighet 58%
Tryck 1016 hPa
Sikt 10 km eller mer
Få moln på en höjd av 4000 ft

METAR: OEJN 191600Z 34010KT 9999 FEW040 26/17 Q1016 NOSIG

Tid: 19:27 (16:27 UTC)

Väderprognos

Denna rapport gjordes för 5 timmar och 27 minuter sedan, klockan 11:00 UTC
Prognos gäller från 19 kl. 12 UTC till 20 kl. 18 UTC
Vind 16 kt från nord/nordväst
Sikt 10 km eller mer
Få moln på en höjd av 4000 ft
Blir
från 19 kl. 20 UTC till 19 kl. 22 UTC
Vind 10 kt från nord/nordost

TAF: OEJN 191100Z 1912/2018 33016KT 9999 FEW040 BECMG 1920/1922 02010KT

Aktuella väderrapporter och prognoser från 4000 flygplatser (METAR- och TAF-rapporter).

De tillgängliga stationerna syns som gula och röda prickar på kartan.

För musen över prickarna för att se namnen på stationerna.

Klicka sedan för att få väderrapporter och prognoser.

För att ändra kartan: Klicka på de gröna knapparna med ett svart kors på för att zooma in; den gröna knappen med ett streck på för att zooma ut; eller på de gröna pilarna för angränsande kartor.


METAR-TAF: